createdAt,value
2018-08-24T00:02:10.000Z,2.93
2018-08-24T00:04:38.417Z,2.50
2018-08-24T00:07:06.876Z,2.63
2018-08-24T00:09:35.305Z,2.70
2018-08-24T00:12:03.744Z,2.20
2018-08-24T00:14:32.184Z,2.00
2018-08-24T00:17:00.644Z,2.20
2018-08-24T00:19:29.060Z,2.17
2018-08-24T00:21:57.478Z,2.20
2018-08-24T00:24:25.912Z,2.03
2018-08-24T00:26:54.376Z,2.10
2018-08-24T00:29:22.804Z,2.40
2018-08-24T00:31:51.451Z,2.70
2018-08-24T00:34:19.721Z,2.40
2018-08-24T00:36:48.137Z,2.90
2018-08-24T00:39:16.557Z,2.30
2018-08-24T00:41:44.984Z,2.87
2018-08-24T00:44:13.460Z,2.73
2018-08-24T00:46:41.896Z,2.57
2018-08-24T00:49:10.313Z,2.60
2018-08-24T00:51:38.764Z,2.67
2018-08-24T00:54:07.256Z,2.87
2018-08-24T00:56:35.701Z,2.63
2018-08-24T00:59:04.149Z,3.00
2018-08-24T01:01:32.645Z,2.90
2018-08-24T01:04:01.085Z,2.63
2018-08-24T01:06:29.528Z,2.67
2018-08-24T01:08:57.940Z,3.00
2018-08-24T01:11:41.510Z,3.17
2018-08-24T01:14:10.105Z,2.43
2018-08-24T01:16:43.981Z,2.93
2018-08-24T01:19:12.457Z,2.80
2018-08-24T01:21:40.934Z,2.80
2018-08-24T01:24:09.398Z,2.07
2018-08-24T01:26:38.781Z,2.77
2018-08-24T01:29:07.295Z,2.40
2018-08-24T01:31:38.596Z,2.30
2018-08-24T01:34:07.101Z,2.60
2018-08-24T01:36:35.576Z,2.80
2018-08-24T01:39:04.884Z,2.67
2018-08-24T01:41:33.317Z,2.57
2018-08-24T01:44:01.894Z,2.67
2018-08-24T01:46:30.404Z,2.60
2018-08-24T01:48:59.076Z,2.30
2018-08-24T01:51:27.749Z,2.77
2018-08-24T01:53:56.435Z,2.80
2018-08-24T01:56:25.276Z,3.00
2018-08-24T01:58:53.796Z,3.43
2018-08-24T02:01:22.524Z,3.30
2018-08-24T02:03:51.064Z,3.50
2018-08-24T02:06:19.498Z,3.30
2018-08-24T02:08:47.960Z,3.20
2018-08-24T02:11:21.760Z,4.23
2018-08-24T02:13:55.501Z,3.87
2018-08-24T02:16:23.949Z,3.83
2018-08-24T02:18:57.832Z,4.00
2018-08-24T02:21:31.557Z,3.77
2018-08-24T02:24:00.021Z,4.07
2018-08-24T02:26:28.468Z,3.87
2018-08-24T02:28:56.925Z,4.00
2018-08-24T02:31:25.403Z,4.40
2018-08-24T02:33:53.852Z,5.40
2018-08-24T02:36:22.851Z,5.20
2018-08-24T02:38:51.284Z,4.83
2018-08-24T02:41:19.752Z,4.80
2018-08-24T02:43:48.194Z,5.40
2018-08-24T02:46:16.664Z,5.57
2018-08-24T02:48:45.099Z,5.67
2018-08-24T02:51:13.554Z,5.50
2018-08-24T02:53:42.005Z,6.40
2018-08-24T02:56:10.439Z,6.30
2018-08-24T02:58:38.921Z,7.27
2018-08-24T03:01:07.950Z,7.40
2018-08-24T03:03:36.432Z,7.10
2018-08-24T03:06:05.815Z,7.13
2018-08-24T03:08:34.285Z,7.80
2018-08-24T03:11:03.578Z,7.27
2018-08-24T03:13:32.053Z,7.40
2018-08-24T03:16:00.577Z,7.80
2018-08-24T03:18:29.023Z,7.67
2018-08-24T03:20:57.464Z,8.00
2018-08-24T03:23:25.930Z,7.63
2018-08-24T03:25:54.392Z,8.67
2018-08-24T03:28:22.845Z,9.50
2018-08-24T03:30:51.305Z,9.30
2018-08-24T03:33:19.768Z,9.97
2018-08-24T03:35:48.237Z,9.63
2018-08-24T03:38:16.701Z,10.30
2018-08-24T03:40:45.216Z,10.10
2018-08-24T03:43:13.666Z,9.67
2018-08-24T03:45:42.161Z,10.27
2018-08-24T03:48:10.561Z,10.93
2018-08-24T03:50:39.078Z,11.13
2018-08-24T03:53:07.549Z,11.00
2018-08-24T03:55:36.991Z,10.03
2018-08-24T03:58:07.008Z,11.80
2018-08-24T04:00:35.475Z,10.70
2018-08-24T04:03:04.318Z,11.10
2018-08-24T04:05:32.752Z,13.17
2018-08-24T04:08:01.197Z,13.27
2018-08-24T04:10:29.641Z,13.50
2018-08-24T04:12:58.244Z,13.03
2018-08-24T04:15:26.580Z,15.53
2018-08-24T04:17:55.004Z,12.87
2018-08-24T04:20:23.638Z,12.60
2018-08-24T04:22:52.070Z,13.23
2018-08-24T04:25:20.541Z,14.93
2018-08-24T04:27:49.001Z,13.43
2018-08-24T04:30:18.237Z,13.83
2018-08-24T04:32:46.679Z,13.80
2018-08-24T04:35:15.195Z,14.63
2018-08-24T04:37:45.291Z,14.83
2018-08-24T04:40:13.867Z,14.70
2018-08-24T04:42:42.250Z,13.57
2018-08-24T04:45:10.848Z,13.43
2018-08-24T04:47:39.333Z,13.90
2018-08-24T04:50:07.885Z,15.93
2018-08-24T04:52:36.341Z,15.77
2018-08-24T04:55:05.424Z,15.00
2018-08-24T04:57:33.884Z,15.70
2018-08-24T05:00:02.394Z,14.77
2018-08-24T05:02:30.868Z,16.27
2018-08-24T05:04:59.497Z,16.57
2018-08-24T05:07:28.002Z,15.53
2018-08-24T05:09:56.849Z,17.50
2018-08-24T05:12:25.314Z,18.90
2018-08-24T05:14:53.781Z,20.87
2018-08-24T05:17:22.227Z,19.70
2018-08-24T05:19:51.394Z,19.63
2018-08-24T05:22:19.839Z,19.83
2018-08-24T05:24:48.380Z,18.93
2018-08-24T05:27:16.757Z,19.97
2018-08-24T05:29:45.272Z,18.83
2018-08-24T05:32:13.728Z,19.20
2018-08-24T05:34:42.245Z,19.20
2018-08-24T05:37:10.682Z,20.77
2018-08-24T05:39:39.133Z,18.83
2018-08-24T05:42:07.597Z,18.17
2018-08-24T05:44:36.956Z,18.50
2018-08-24T05:47:05.473Z,17.93
2018-08-24T05:49:33.929Z,15.40
2018-08-24T05:52:02.388Z,18.90
2018-08-24T05:54:30.818Z,15.83
2018-08-24T05:56:59.264Z,16.10
2018-08-24T05:59:27.703Z,16.67
2018-08-24T06:01:56.325Z,15.37
2018-08-24T06:04:24.777Z,14.47
2018-08-24T06:06:54.513Z,15.23
2018-08-24T06:09:23.272Z,13.93
2018-08-24T06:11:51.773Z,14.40
2018-08-24T06:14:20.294Z,13.57
2018-08-24T06:16:54.123Z,12.87
2018-08-24T06:19:22.492Z,13.47
2018-08-24T06:21:51.944Z,12.57
2018-08-24T06:24:20.827Z,12.33
2018-08-24T06:26:49.429Z,11.87
2018-08-24T06:29:17.912Z,11.33
2018-08-24T06:31:46.377Z,11.43
2018-08-24T06:34:14.894Z,11.23
2018-08-24T06:36:43.377Z,10.20
2018-08-24T06:39:13.553Z,11.27
2018-08-24T06:41:42.869Z,12.30
2018-08-24T06:44:11.272Z,11.57
2018-08-24T06:46:39.709Z,12.77
2018-08-24T06:49:08.392Z,12.17
2018-08-24T06:51:36.820Z,11.07
2018-08-24T06:54:05.356Z,11.70
2018-08-24T06:56:33.813Z,11.70
2018-08-24T06:59:02.453Z,10.57
2018-08-24T07:01:30.914Z,11.33
2018-08-24T07:03:59.385Z,10.77
2018-08-24T07:06:27.859Z,11.43
2018-08-24T07:08:56.348Z,11.47
2018-08-24T07:11:24.809Z,11.47
2018-08-24T07:13:54.795Z,10.70
2018-08-24T07:16:23.364Z,10.77
2018-08-24T07:18:51.899Z,11.13
2018-08-24T07:21:20.365Z,10.47
2018-08-24T07:23:48.837Z,11.07
2018-08-24T07:26:17.293Z,10.60
2018-08-24T07:28:45.763Z,10.23
2018-08-24T07:31:14.217Z,10.70
2018-08-24T07:33:42.709Z,10.30
2018-08-24T07:36:11.169Z,10.20
2018-08-24T07:38:39.642Z,9.53
2018-08-24T07:41:08.120Z,10.03
2018-08-24T07:43:36.614Z,9.00
2018-08-24T07:46:05.081Z,9.43
2018-08-24T07:48:33.526Z,9.60
2018-08-24T07:51:02.036Z,9.43
2018-08-24T07:53:30.472Z,8.87
2018-08-24T07:55:58.997Z,10.33
2018-08-24T07:58:27.438Z,9.33
2018-08-24T08:00:55.919Z,8.80
2018-08-24T08:03:24.366Z,8.90
2018-08-24T08:05:52.889Z,10.13
2018-08-24T08:08:21.348Z,9.93
2018-08-24T08:10:49.828Z,10.10
2018-08-24T08:13:18.317Z,10.40
2018-08-24T08:15:46.784Z,10.00
2018-08-24T08:18:15.348Z,9.47
2018-08-24T08:20:43.749Z,9.37
2018-08-24T08:23:12.233Z,9.33
2018-08-24T08:25:40.761Z,9.13
2018-08-24T08:28:09.245Z,9.17
2018-08-24T08:30:37.709Z,8.90
2018-08-24T08:33:06.181Z,9.33
2018-08-24T08:35:34.696Z,7.87
2018-08-24T08:38:03.192Z,7.40
2018-08-24T08:40:31.630Z,6.83
2018-08-24T08:43:00.110Z,6.30
2018-08-24T08:45:28.616Z,7.00
2018-08-24T08:47:57.005Z,7.40
2018-08-24T08:50:25.466Z,5.70
2018-08-24T08:52:53.942Z,6.30
2018-08-24T08:55:22.441Z,6.30
2018-08-24T08:57:50.918Z,5.87
2018-08-24T09:00:19.420Z,4.83
2018-08-24T09:02:47.926Z,5.23
2018-08-24T09:05:16.469Z,4.67
2018-08-24T09:07:44.980Z,4.10
2018-08-24T09:10:13.474Z,3.83
2018-08-24T09:12:42.516Z,4.10
2018-08-24T09:15:10.993Z,4.00
2018-08-24T09:17:44.872Z,3.57
2018-08-24T09:20:18.640Z,4.57
2018-08-24T09:22:52.389Z,3.33
2018-08-24T09:25:26.031Z,3.13
2018-08-24T09:27:59.751Z,3.90
2018-08-24T09:30:31.913Z,3.63
2018-08-24T09:33:00.541Z,3.53
2018-08-24T09:35:28.885Z,3.50
2018-08-24T09:37:57.366Z,3.30
2018-08-24T09:40:31.098Z,3.00
2018-08-24T09:43:03.823Z,3.37
2018-08-24T09:45:32.277Z,3.63
2018-08-24T09:48:06.127Z,3.70
2018-08-24T09:51:38.241Z,3.43
2018-08-24T09:54:07.976Z,3.27
2018-08-24T09:56:37.722Z,3.50
2018-08-24T09:59:06.281Z,2.97
2018-08-24T10:01:40.396Z,3.07
2018-08-24T10:04:14.309Z,3.70
2018-08-24T10:06:48.214Z,3.10
2018-08-24T10:09:16.637Z,3.60
2018-08-24T10:11:45.106Z,2.80
2018-08-24T10:14:13.549Z,2.90
2018-08-24T10:16:42.176Z,2.83
2018-08-24T10:19:12.059Z,3.40
2018-08-24T10:21:40.535Z,2.70
2018-08-24T10:24:10.052Z,2.30
2018-08-24T10:26:38.917Z,2.50
2018-08-24T10:29:08.089Z,2.17
2018-08-24T10:31:37.544Z,2.10
2018-08-24T10:34:06.203Z,1.90
2018-08-24T10:36:34.713Z,2.20
2018-08-24T10:39:03.773Z,2.10
2018-08-24T10:41:32.185Z,2.30
2018-08-24T10:44:00.648Z,1.87
2018-08-24T10:46:29.125Z,1.60
2018-08-24T10:48:57.612Z,2.00
2018-08-24T10:51:26.083Z,1.80
2018-08-24T10:53:54.611Z,1.67
2018-08-24T10:56:23.121Z,1.97
2018-08-24T10:58:52.081Z,1.70
2018-08-24T11:01:20.565Z,1.57
2018-08-24T11:03:49.134Z,1.70
2018-08-24T11:06:17.706Z,2.03
2018-08-24T11:08:47.417Z,2.00
2018-08-24T11:11:15.913Z,1.67
2018-08-24T11:13:44.413Z,1.73
2018-08-24T11:16:14.205Z,1.13
2018-08-24T11:18:42.685Z,1.50
2018-08-24T11:21:11.242Z,1.30
2018-08-24T11:23:39.709Z,1.40
2018-08-24T11:26:08.382Z,1.37
2018-08-24T11:28:36.855Z,1.20
2018-08-24T11:31:05.350Z,1.23
2018-08-24T11:33:33.829Z,1.47
2018-08-24T11:36:02.429Z,1.17
2018-08-24T11:38:30.889Z,1.00
2018-08-24T11:40:59.414Z,1.37
2018-08-24T11:43:27.889Z,1.27
2018-08-24T11:45:56.398Z,1.17
2018-08-24T11:48:27.389Z,1.23
2018-08-24T11:50:56.818Z,1.40
2018-08-24T11:53:25.808Z,1.13
2018-08-24T11:55:54.289Z,1.30
2018-08-24T11:58:24.825Z,1.20
2018-08-24T12:00:53.859Z,1.30
2018-08-24T12:03:22.385Z,1.40
2018-08-24T12:05:50.893Z,1.40
2018-08-24T12:08:19.495Z,1.50
2018-08-24T12:10:48.062Z,1.23
2018-08-24T12:13:16.600Z,1.60
2018-08-24T12:15:45.106Z,1.43
2018-08-24T12:18:13.659Z,1.53
2018-08-24T12:20:42.156Z,1.50
2018-08-24T12:23:10.645Z,1.40
2018-08-24T12:25:39.180Z,2.07
2018-08-24T12:28:07.695Z,1.70
2018-08-24T12:30:37.018Z,1.73
2018-08-24T12:33:05.846Z,1.47
2018-08-24T12:35:34.326Z,1.03
2018-08-24T12:38:03.551Z,1.33
2018-08-24T12:40:32.140Z,1.27
2018-08-24T12:43:00.681Z,1.00
2018-08-24T12:45:29.185Z,1.20
2018-08-24T12:47:57.761Z,1.20
2018-08-24T12:50:26.357Z,1.30
2018-08-24T12:52:54.963Z,0.93
2018-08-24T12:55:23.540Z,1.63
2018-08-24T12:57:52.093Z,1.30
2018-08-24T13:00:20.657Z,0.90
2018-08-24T13:02:49.171Z,1.00
2018-08-24T13:05:17.657Z,1.20
2018-08-24T13:07:46.173Z,1.00
2018-08-24T13:10:14.733Z,1.00
2018-08-24T13:12:43.190Z,1.20
2018-08-24T13:15:11.804Z,1.30
2018-08-24T13:17:40.275Z,1.20
2018-08-24T13:20:09.757Z,1.10
2018-08-24T13:22:38.259Z,0.70
2018-08-24T13:25:06.826Z,0.70
2018-08-24T13:27:35.373Z,0.80
2018-08-24T13:30:03.971Z,1.20
2018-08-24T13:32:32.491Z,1.10
2018-08-24T13:35:00.998Z,0.97
2018-08-24T13:37:29.848Z,0.87
2018-08-24T13:39:58.317Z,0.90
2018-08-24T13:42:26.789Z,0.80
2018-08-24T13:44:55.353Z,1.00
2018-08-24T13:47:23.776Z,1.00
2018-08-24T13:49:52.286Z,1.00
2018-08-24T13:52:20.845Z,1.00
2018-08-24T13:54:49.388Z,1.20
2018-08-24T13:57:18.050Z,1.30
2018-08-24T13:59:46.599Z,1.20
2018-08-24T14:02:15.097Z,1.10
2018-08-24T14:04:43.598Z,1.00
2018-08-24T14:07:12.157Z,1.10
2018-08-24T14:09:40.644Z,1.07
2018-08-24T14:12:09.138Z,1.10
2018-08-24T14:14:37.638Z,1.00
2018-08-24T14:17:06.262Z,1.03
2018-08-24T14:19:36.765Z,0.90
2018-08-24T14:22:05.304Z,1.20
2018-08-24T14:24:33.874Z,1.20
2018-08-24T14:27:04.513Z,0.87
2018-08-24T14:37:17.779Z,1.17
2018-08-24T14:39:46.246Z,1.10
2018-08-24T14:42:14.696Z,1.10
2018-08-24T14:44:45.705Z,1.00
2018-08-24T14:47:14.156Z,1.13
2018-08-24T14:49:42.596Z,1.03
2018-08-24T14:52:11.032Z,1.00
2018-08-24T14:54:39.488Z,1.37
2018-08-24T14:57:07.929Z,22.30
2018-08-24T14:59:36.381Z,46.07
2018-08-24T15:02:05.307Z,7.53
2018-08-24T15:04:33.846Z,2.83
2018-08-24T15:07:02.290Z,1.70
2018-08-24T15:09:30.752Z,1.10
2018-08-24T15:11:59.184Z,1.00
2018-08-24T15:17:48.153Z,1.03
2018-08-24T15:20:16.657Z,0.97
2018-08-24T15:22:45.086Z,0.90
2018-08-24T15:25:14.410Z,1.00
2018-08-24T15:27:42.861Z,0.90
2018-08-24T15:30:11.373Z,0.97
2018-08-24T15:32:39.926Z,0.80
2018-08-24T15:35:08.947Z,1.20
2018-08-24T15:37:37.368Z,0.80
2018-08-24T15:40:07.208Z,1.10
2018-08-24T15:42:35.691Z,1.00
2018-08-24T15:45:04.277Z,1.10
2018-08-24T15:47:32.741Z,1.10
2018-08-24T15:50:01.361Z,1.17
2018-08-24T15:52:29.797Z,1.13
2018-08-24T15:54:58.272Z,0.93
2018-08-24T15:57:26.776Z,1.10
2018-08-24T15:59:55.873Z,0.87
2018-08-24T16:02:24.422Z,0.90
2018-08-24T16:04:52.892Z,0.97
2018-08-24T16:07:21.439Z,0.90
2018-08-24T16:09:49.944Z,1.00
2018-08-24T16:12:18.530Z,1.00
2018-08-24T16:14:46.880Z,1.20
2018-08-24T16:17:15.321Z,0.90
2018-08-24T16:19:43.773Z,1.30
2018-08-24T16:22:12.859Z,1.00
2018-08-24T16:24:41.284Z,1.00
2018-08-24T16:27:14.117Z,1.40
2018-08-24T16:29:42.553Z,1.00
2018-08-24T16:32:11.052Z,1.63
2018-08-24T16:34:39.838Z,1.30
2018-08-24T16:40:08.574Z,1.13
2018-08-24T16:42:37.028Z,1.10
2018-08-24T16:45:05.546Z,1.10
2018-08-24T16:47:34.408Z,1.00
2018-08-24T16:50:02.988Z,1.23
2018-08-24T16:52:31.482Z,1.20
2018-08-24T16:55:02.404Z,1.30
2018-08-24T16:57:30.837Z,1.40
2018-08-24T16:59:59.304Z,1.33
2018-08-24T17:02:27.800Z,1.13
2018-08-24T17:04:56.329Z,1.10
2018-08-24T17:07:24.791Z,1.50
2018-08-24T17:09:53.220Z,1.40
2018-08-24T17:12:21.719Z,1.20
2018-08-24T17:14:50.188Z,1.13
2018-08-24T17:17:18.655Z,1.13
2018-08-24T17:19:47.140Z,1.37
2018-08-24T17:25:07.556Z,0.97
2018-08-24T17:27:36.229Z,1.03
2018-08-24T17:32:58.212Z,1.40
2018-08-24T17:35:26.713Z,1.00
2018-08-24T17:37:55.165Z,1.47
2018-08-24T17:40:24.200Z,1.40
2018-08-24T17:42:52.669Z,1.40
2018-08-24T17:45:21.471Z,1.50
2018-08-24T17:47:50.044Z,1.30
2018-08-24T17:50:18.492Z,1.30
2018-08-24T17:52:47.536Z,2.03
2018-08-24T17:55:15.994Z,1.70
2018-08-24T17:57:45.545Z,1.37
2018-08-24T18:00:14.162Z,1.33
2018-08-24T18:02:42.625Z,1.33
2018-08-24T18:05:11.224Z,1.43
2018-08-24T18:07:39.681Z,1.20
2018-08-24T18:10:08.141Z,1.10
2018-08-24T18:12:36.793Z,1.50
2018-08-24T18:15:05.384Z,1.37
2018-08-24T18:17:33.871Z,1.23
2018-08-24T18:20:02.327Z,1.10
2018-08-24T18:22:30.824Z,1.23
2018-08-24T18:24:59.286Z,1.30
2018-08-24T18:27:28.347Z,1.17
2018-08-24T18:29:56.864Z,1.50
2018-08-24T18:32:25.297Z,1.30
2018-08-24T18:34:53.841Z,1.00
2018-08-24T18:37:22.348Z,1.40
2018-08-24T18:39:50.792Z,1.10
2018-08-24T18:42:19.240Z,0.87
2018-08-24T18:44:47.800Z,1.30
2018-08-24T18:47:16.268Z,1.20
2018-08-24T18:49:44.766Z,2.27
2018-08-24T18:52:13.411Z,1.63
2018-08-24T18:54:41.883Z,1.40
2018-08-24T18:57:10.910Z,0.90
2018-08-24T18:59:39.441Z,1.13
2018-08-24T19:02:07.965Z,1.33
2018-08-24T19:04:36.933Z,1.20
2018-08-24T19:07:05.429Z,1.07
2018-08-24T19:09:33.890Z,1.53
2018-08-24T19:12:08.176Z,1.17
2018-08-24T19:14:36.616Z,1.40
2018-08-24T19:17:05.109Z,1.20
2018-08-24T19:19:38.945Z,1.13
2018-08-24T19:22:07.427Z,0.90
2018-08-24T19:24:35.983Z,1.10
2018-08-24T19:27:04.398Z,1.00
2018-08-24T19:29:38.173Z,1.30
2018-08-24T19:32:06.608Z,1.00
2018-08-24T19:34:35.105Z,1.30
2018-08-24T19:37:03.626Z,1.40
2018-08-24T19:39:32.082Z,1.27
2018-08-24T19:42:05.958Z,1.20
2018-08-24T19:44:34.439Z,1.30
2018-08-24T19:47:02.869Z,2.33
2018-08-24T19:49:31.433Z,0.97
2018-08-24T19:51:59.848Z,0.90
2018-08-24T19:54:28.289Z,1.03
2018-08-24T19:57:00.929Z,1.07
2018-08-24T19:59:29.912Z,0.90
2018-08-24T20:01:58.397Z,1.20
2018-08-24T20:04:26.916Z,1.77
2018-08-24T20:07:00.697Z,1.20
2018-08-24T20:09:34.548Z,1.23
2018-08-24T20:12:03.027Z,1.20
2018-08-24T20:14:36.819Z,1.17
2018-08-24T20:17:10.625Z,1.20
2018-08-24T20:19:39.081Z,1.00
2018-08-24T20:22:09.037Z,1.23
2018-08-24T20:24:38.165Z,1.00
2018-08-24T20:27:06.636Z,1.00
2018-08-24T20:29:35.063Z,1.40
2018-08-24T20:32:03.563Z,1.13
2018-08-24T20:34:31.994Z,1.00
2018-08-24T20:37:00.458Z,1.00
2018-08-24T20:39:28.905Z,1.07
2018-08-24T20:41:57.356Z,1.07
2018-08-24T20:44:25.799Z,0.80
2018-08-24T20:46:54.772Z,0.90
2018-08-24T20:49:23.193Z,0.87
2018-08-24T20:51:51.638Z,0.67
2018-08-24T20:54:20.075Z,1.10
2018-08-24T20:56:48.552Z,0.80
2018-08-24T20:59:17.325Z,1.10
2018-08-24T21:01:45.832Z,0.80
2018-08-24T21:04:14.299Z,0.90
2018-08-24T21:06:42.701Z,0.87
2018-08-24T21:09:11.569Z,0.90
2018-08-24T21:11:40.019Z,1.20
2018-08-24T21:14:08.477Z,0.77
2018-08-24T21:16:36.915Z,1.03
2018-08-24T21:19:05.493Z,1.13
2018-08-24T21:21:33.965Z,1.00
2018-08-24T21:24:02.445Z,1.00
2018-08-24T21:26:30.869Z,1.00
2018-08-24T21:28:59.338Z,1.10
2018-08-24T21:31:27.806Z,1.53
2018-08-24T21:33:56.241Z,1.40
2018-08-24T21:36:24.712Z,0.90
2018-08-24T21:38:53.194Z,0.87
2018-08-24T21:41:21.649Z,1.00
2018-08-24T21:43:50.116Z,0.90
2018-08-24T21:46:18.749Z,0.90
2018-08-24T21:48:47.186Z,1.10
2018-08-24T21:51:15.725Z,1.10
2018-08-24T21:53:44.170Z,1.00
2018-08-24T21:56:12.629Z,1.10
2018-08-24T21:58:41.043Z,1.00
2018-08-24T22:01:09.500Z,1.00
2018-08-24T22:03:37.948Z,0.97
2018-08-24T22:06:06.389Z,1.03
2018-08-24T22:08:34.828Z,1.40
2018-08-24T22:11:03.397Z,1.30
2018-08-24T22:13:31.808Z,0.97
2018-08-24T22:16:00.245Z,1.27
2018-08-24T22:18:28.669Z,1.20
2018-08-24T22:20:57.166Z,0.90
2018-08-24T22:23:25.604Z,0.80
2018-08-24T22:25:54.056Z,1.50
2018-08-24T22:28:22.489Z,1.97
2018-08-24T22:30:50.933Z,1.00
2018-08-24T22:33:19.362Z,0.93
2018-08-24T22:35:47.932Z,1.00
2018-08-24T22:38:16.542Z,1.07
2018-08-24T22:40:44.964Z,1.13
2018-08-24T22:43:18.537Z,0.90
2018-08-24T22:45:47.011Z,1.03
2018-08-24T22:48:15.450Z,0.90
2018-08-24T22:50:44.322Z,0.93
2018-08-24T22:53:12.765Z,1.00
2018-08-24T22:55:41.182Z,1.10
2018-08-24T22:58:09.649Z,1.30
2018-08-24T23:00:38.081Z,1.20
2018-08-24T23:03:06.565Z,1.20
2018-08-24T23:05:34.989Z,1.20
2018-08-24T23:08:03.477Z,1.00
2018-08-24T23:10:31.901Z,1.07
2018-08-24T23:13:00.321Z,1.10
2018-08-24T23:15:28.756Z,0.93
2018-08-24T23:17:57.196Z,0.90
2018-08-24T23:20:25.641Z,1.70
2018-08-24T23:22:54.089Z,1.10
2018-08-24T23:25:22.552Z,1.00
2018-08-24T23:27:50.963Z,1.10
2018-08-24T23:30:19.463Z,1.30
2018-08-24T23:32:47.899Z,0.90
2018-08-24T23:35:16.325Z,1.07
2018-08-24T23:37:44.733Z,1.00
2018-08-24T23:40:13.211Z,0.90
2018-08-24T23:42:41.619Z,1.10
2018-08-24T23:45:10.065Z,0.83
2018-08-24T23:47:38.501Z,1.30
2018-08-24T23:50:07.464Z,1.20
2018-08-24T23:52:35.895Z,0.87
2018-08-24T23:55:04.369Z,1.33
2018-08-24T23:57:32.887Z,0.90
